Orono, Minnesota
Current Conditions -  °F | °C
As of 4:53 AM on Saturday 25 Oct 2014 (Local Time) from KFCM Reporting Station
Clear Clear  
Wind Chill: 57°   Ceiling: Unl
Heat Index: 57°   Visibility: 10mi
Dew Point: 36°   Wind: 10mph
Humidity: 45%   Direction: 310°NW
Pressure: 29.96"   Gusts: NA
Location:  44.9534°N, 93.5762°W
Report Text: KFCM 250953Z AUTO 31009KT 10SM CLR 14/02 A2996 RMK AO2 SLP144 T01390022
Loading
Personal Weather Stations






























Interactive Weather Map
Tropical Storm Tracking
New forecast layout! Learn more

10-Day Weather Forecast

Advertisements
Track Severe Weather on mobile